M I D A S
Marine Information and Data Acquisition System
Tripno 216 of the Zeeleeuw from 2002-02-13 08:35:00 to 2002-02-13 15:01:13
Back to CruiseResearch ActivitiesStationsMapUnderway DataData graphs

EquipmentUnitsComment
TimeDGPSUTC
LatitudeDGPSDM.mWGS84
LongitudeDGPSDM.mWGS84
HeadingGyrodeg 
SOGDGPSknotsSpeed over ground
COGDGPSdegCourse over ground
DepthEcho soundermeters200 kHz
Missing or incorrect values are displayed as -999
Navigation data collected by the RV Zeeleeuw from 2002-02-13 08:35:00 to 2002-02-13 15:01:13
Time Latitude Longitude Heading SOG COG Depth
2002-02-13 10:04:40 51°8.336 2°34.007 49.8 0.7 52.2 14.9
2002-02-13 10:05:40 51°8.361 2°34.011 359 3.5 348.8 15.6
2002-02-13 10:06:40 51°8.503 2°33.987 359.7 11.7 352.1 16.7
2002-02-13 10:07:40 51°8.703 2°33.886 358.7 12.8 349.8 16.4
2002-02-13 10:08:47 51°8.908 2°33.887 16.7 8.5 8.5 15.9
2002-02-13 10:09:48 51°8.986 2°33.927 52.2 1.6 39.6 16.4
2002-02-13 10:10:48 51°8.984 2°33.948 90 1.1 108.3 16.4
2002-02-13 10:11:47 51°8.978 2°33.972 78.2 1 106.7 16.3
2002-02-13 10:12:48 51°8.974 2°33.998 75.3 0.9 104.8 16.2
2002-02-13 10:13:48 51°8.97 2°34.018 75.5 0.8 110.3 16.1
2002-02-13 10:14:48 51°8.965 2°34.036 74.2 0.7 118.8 16.2
2002-02-13 10:15:48 51°8.961 2°34.054 73.8 1.2 89 16.1
2002-02-13 10:16:48 51°9.033 2°34.142 14.5 7.9 11.3 16.8
2002-02-13 10:17:48 51°9.146 2°34.013 298.5 9.6 293.8 18.4
2002-02-13 10:18:47 51°9.102 2°33.766 242 10.8 238.4 18.3
2002-02-13 10:19:48 51°9.003 2°33.511 247.3 11.3 242.4 18.4
2002-02-13 10:20:49 51°8.908 2°33.247 244.3 11.3 239.2 18.6
2002-02-13 10:21:49 51°8.815 2°32.989 246.5 11.2 241.5 18.7
2002-02-13 10:22:49 51°8.728 2°32.727 248.7 11.2 243.4 19.2
2002-02-13 10:23:48 51°8.662 2°32.457 253.3 11 248.3 19.4
2002-02-13 10:24:49 51°8.584 2°32.187 249 11 244.5 19.1
2002-02-13 10:25:49 51°8.496 2°31.932 239.8 10.9 236.4 18.8
2002-02-13 10:26:48 51°8.418 2°31.675 256.3 11 251.4 18
2002-02-13 10:27:48 51°8.344 2°31.412 243 11 238.6 16.2
2002-02-13 10:28:48 51°8.289 2°31.221 232 4.1 229.1 14.4
2002-02-13 10:29:48 51°8.266 2°31.212 175.5 1.9 169.7 15.3
2002-02-13 10:30:48 51°8.237 2°31.3 78.5 4.7 81.6 17.8
2002-02-13 10:31:49 51°8.307 2°31.329 334.7 5.2 332.2 16.3
2002-02-13 10:32:49 51°8.349 2°31.265 347 0.8 346.8 13.4
2002-02-13 10:33:48 51°8.35 2°31.272 17 0.4 62.9 13.6
2002-02-13 10:34:50 51°8.355 2°31.288 51.3 0.8 73.6 -999
2002-02-13 10:35:48 51°8.356 2°31.313 74.5 1.2 85.9 14.6
2002-02-13 10:36:48 51°8.358 2°31.355 81.2 1.9 86 15.5
2002-02-13 10:37:48 51°8.361 2°31.407 79 1.9 84.4 16.4
2002-02-13 10:38:48 51°8.364 2°31.453 75.2 1.6 82.8 16.8
2002-02-13 10:39:48 51°8.366 2°31.49 71.7 1.3 82.3 17.4
2002-02-13 10:40:48 51°8.37 2°31.521 68.7 1.1 80.7 17.7
2002-02-13 10:41:48 51°8.374 2°31.548 65.5 1 78.7 18
2002-02-13 10:42:49 51°8.378 2°31.577 64.3 1.4 74.3 18.1
2002-02-13 10:43:49 51°8.379 2°31.599 66.7 0.6 102.3 18.4
2002-02-13 10:44:48 51°8.377 2°31.615 70.2 0.7 102 18.5
2002-02-13 10:45:48 51°8.374 2°31.632 72.3 0.7 100.4 18.8
2002-02-13 10:46:49 51°8.372 2°31.65 70.8 0.7 97.7 18.8
2002-02-13 10:47:48 51°8.372 2°31.668 68.7 0.7 96.3 19.1
2002-02-13 10:48:46 51°8.375 2°31.7 68.8 3.4 69.9 19.3
2002-02-13 10:49:49 51°8.436 2°31.866 58 8.5 55.7 19.6
2002-02-13 10:50:48 51°8.481 2°32.088 83 9.3 79.5 19.8
2002-02-13 10:51:49 51°8.531 2°32.329 71.2 9.5 68 20.2
2002-02-13 10:52:48 51°8.587 2°32.562 71.7 9.6 69.5 20.1
2002-02-13 10:53:49 51°8.645 2°32.804 71.5 9.6 68.8 20.9
2002-02-13 10:54:48 51°8.701 2°33.035 72 9.5 68.8 19.9
2002-02-13 10:55:48 51°8.757 2°33.269 72.2 9.5 68.9 19.5
2002-02-13 10:56:49 51°8.807 2°33.513 75.8 9.5 72.6 18.4
2002-02-13 10:57:48 51°8.856 2°33.751 74.8 9.6 71.7 17
2002-02-13 10:58:49 51°8.907 2°33.998 74.3 9.7 71.4 17.3
2002-02-13 10:59:48 51°8.958 2°34.238 74.8 9.7 71.8 17.1
2002-02-13 11:00:48 51°9 2°34.487 82 9.8 78.4 17.5
2002-02-13 11:01:48 51°9.036 2°34.741 79.5 9.8 76.3 17.8
2002-02-13 11:02:48 51°9.068 2°34.995 82.2 9.8 79 17.8
2002-02-13 11:03:48 51°9.1 2°35.248 82 9.8 79.1 17.8
2002-02-13 11:04:48 51°9.127 2°35.502 84.2 9.7 81.1 17.9
2002-02-13 11:05:47 51°9.154 2°35.754 84.3 9.9 81.1 17.6
2002-02-13 11:06:47 51°9.18 2°36.015 85.3 10 82.2 17.5
2002-02-13 11:07:49 51°9.204 2°36.285 84.7 10 81.8 17.1
2002-02-13 11:08:48 51°9.228 2°36.54 84.7 9.8 82 16.1
2002-02-13 11:09:47 51°9.252 2°36.793 84.8 9.8 81.8 14.9
2002-02-13 11:10:48 51°9.274 2°37.056 87 9.9 83.4 14.1
2002-02-13 11:11:48 51°9.291 2°37.317 86.7 9.9 83.5 13.3
2002-02-13 11:12:47 51°9.309 2°37.575 86.8 10 83.6 12.8
2002-02-13 11:13:48 51°9.32 2°37.845 90.3 10 87.1 12.5
2002-02-13 11:14:48 51°9.335 2°38.111 89.3 10.1 85.4 12.3
2002-02-13 11:15:48 51°9.333 2°38.378 96.2 10.1 92.5 11.9
2002-02-13 11:16:48 51°9.343 2°38.613 77.8 6.7 77.1 11.6
2002-02-13 11:17:48 51°9.361 2°38.675 25.3 1.9 57.5 11.8
2002-02-13 11:18:48 51°9.383 2°38.719 33.2 2.2 54.1 11.8
2002-02-13 11:19:48 51°9.402 2°38.775 59.8 2.5 67.7 11.8
2002-02-13 11:20:48 51°9.41 2°38.849 98.3 3.2 90.6 11.8
2002-02-13 11:21:47 51°9.402 2°38.928 115.3 3 103.3 11.7
2002-02-13 11:22:48 51°9.39 2°39.002 127.5 2.7 107.6 11.5
2002-02-13 11:23:47 51°9.365 2°39.061 170.5 2.9 140.2 11.4
2002-02-13 11:24:47 51°9.306 2°39.087 199.7 4.2 179.4 11.1
2002-02-13 11:25:48 51°9.237 2°39.054 227.2 4.2 211.3 10.8
2002-02-13 11:26:48 51°9.207 2°39.002 253 1.9 238.2 10.9
2002-02-13 11:27:48 51°9.203 2°38.967 278.3 1.4 283.4 10.9
2002-02-13 11:28:48 51°9.221 2°38.927 300.2 2.2 315.2 11.1
2002-02-13 11:29:48 51°9.247 2°38.903 311.5 1.7 338.6 11.3
2002-02-13 11:30:46 51°9.274 2°38.9 332.8 1.8 8.5 11.5
2002-02-13 11:31:48 51°9.306 2°38.917 346.3 2 23.2 11.6
2002-02-13 11:32:48 51°9.337 2°38.943 359.3 2.2 32.8 11.7
2002-02-13 11:33:48 51°9.365 2°38.982 14 2.2 47 11.8
2002-02-13 11:34:48 51°9.387 2°39.028 27.2 2.1 58 11.9
2002-02-13 11:35:48 51°9.403 2°39.077 35.2 2 65.3 11.9
2002-02-13 11:36:48 51°9.414 2°39.126 36.7 1.9 72.4 11.9
2002-02-13 11:37:48 51°9.423 2°39.172 38.3 1.8 76.9 11.9
2002-02-13 11:38:48 51°9.432 2°39.22 36.3 2 71.2 11.9
2002-02-13 11:39:48 51°9.447 2°39.271 22.2 2.2 61.7 11.9
2002-02-13 11:40:48 51°9.468 2°39.32 19.5 2.2 54.8 12
2002-02-13 11:41:48 51°9.49 2°39.369 17.2 2.3 53.3 12.1
2002-02-13 11:42:48 51°9.514 2°39.417 16.2 2.3 51.4 12
2002-02-13 11:43:48 51°9.539 2°39.465 14.8 2.4 50.5 12.2
2002-02-13 11:44:47 51°9.564 2°39.513 18.3 2.4 50.8 12.2
2002-02-13 11:45:48 51°9.59 2°39.568 28.8 2.6 57.5 12.2
2002-02-13 11:46:48 51°9.612 2°39.625 37.5 2.5 61.8 12.4
2002-02-13 11:47:48 51°9.63 2°39.682 32.7 2.3 64 12.4
2002-02-13 11:48:48 51°9.646 2°39.737 44 2.3 66.2 12.3
2002-02-13 11:49:48 51°9.659 2°39.795 52.8 2.3 72 12.4
2002-02-13 11:50:48 51°9.67 2°39.85 50.3 2.2 73 12.3
2002-02-13 11:51:48 51°9.681 2°39.905 50.5 2.1 73.4 12.4
2002-02-13 11:52:48 51°9.691 2°39.958 48.3 2.1 75.4 12.3
2002-02-13 11:53:47 51°9.7 2°40.009 44.2 2 73.4 12.3
2002-02-13 11:54:48 51°9.71 2°40.061 43.2 2 73.8 12.3
2002-02-13 11:55:48 51°9.719 2°40.112 43.7 2 75.5 12.3
2002-02-13 11:56:48 51°9.728 2°40.163 40.5 2 73.3 12.3
2002-02-13 11:57:48 51°9.74 2°40.215 34.2 2.1 67.1 12.3
2002-02-13 11:58:48 51°9.754 2°40.269 32.3 2.3 67.3 12.4
2002-02-13 11:59:48 51°9.77 2°40.323 27.3 2.2 63.2 12.3
2002-02-13 12:00:48 51°9.788 2°40.376 37.3 2.3 62.3 12.4
2002-02-13 12:01:48 51°9.803 2°40.435 67.3 2.4 72.1 12.3
2002-02-13 12:02:48 51°9.812 2°40.5 83.5 2.6 80.2 12.3
2002-02-13 12:03:48 51°9.821 2°40.572 85.2 2.8 81.1 12.2
2002-02-13 12:04:48 51°9.83 2°40.647 86.8 3 80.3 12.1
2002-02-13 12:05:48 51°9.839 2°40.725 86.5 3.1 79.9 12.1
2002-02-13 12:06:48 51°9.846 2°40.81 104.3 3.5 87.4 12.1
2002-02-13 12:07:48 51°9.835 2°40.905 134.2 3.8 108.2 11.7
2002-02-13 12:08:48 51°9.803 2°40.988 163 3.7 132 11.7
2002-02-13 12:09:48 51°9.756 2°41.044 185.7 3.3 153.5 11.5
2002-02-13 12:11:18 51°9.698 2°41.083 9.3 1.8 150.1 7
2002-02-13 12:12:18 51°9.678 2°41.109 13.5 1.5 140 11.5
2002-02-13 12:13:18 51°9.66 2°41.124 32.2 1.1 163.2 11.5
2002-02-13 12:14:17 51°9.638 2°41.109 44 1.9 218 11.5
2002-02-13 12:15:17 51°9.619 2°41.06 63.5 2.4 254 11.4
2002-02-13 12:16:18 51°9.621 2°41.006 83 1.7 290.3 11.5
2002-02-13 12:17:17 51°9.64 2°40.966 99.8 2.1 315 11.5
2002-02-13 12:19:02 51°9.689 2°40.924 11.5 1.5 358.6 -999
2002-02-13 12:20:02 51°9.715 2°40.927 309.2 1.9 359.9 -999
2002-02-13 12:21:02 51°9.752 2°40.927 321.5 2.2 2.2 -999
2002-02-13 12:21:58 51°9.785 2°40.93 317.8 2.1 3.9 11.8
2002-02-13 12:22:58 51°9.817 2°40.929 303.5 1.7 352.2 12
2002-02-13 12:23:58 51°9.842 2°40.913 287.8 1.6 329.5 11.6
2002-02-13 12:24:57 51°9.859 2°40.883 266.3 1.5 292.2 12.3
2002-02-13 12:25:57 51°9.858 2°40.838 251.2 2 260.2 12.2
2002-02-13 12:26:57 51°9.853 2°40.783 257.3 2.1 266.2 12.3
2002-02-13 12:27:57 51°9.852 2°40.728 253.2 2 263.2 12.4
2002-02-13 12:28:58 51°9.837 2°40.683 235.5 1.9 232.5 12.4
2002-02-13 12:29:58 51°9.817 2°40.644 238 2 233.2 12.4
2002-02-13 12:30:57 51°9.8 2°40.602 239.8 1.9 235.4 12.3
2002-02-13 12:31:58 51°9.783 2°40.557 242.5 1.9 239.7 12.4
2002-02-13 12:32:58 51°9.769 2°40.512 244.8 1.9 246 12.4
2002-02-13 12:33:58 51°9.756 2°40.466 246.2 1.9 245.4 12.3
2002-02-13 12:34:57 51°9.745 2°40.419 248.5 1.9 250.5 12.4
2002-02-13 12:35:58 51°9.735 2°40.37 248 1.9 251.5 12.3
2002-02-13 12:36:58 51°9.724 2°40.322 250 1.9 252.4 12.4
2002-02-13 12:37:58 51°9.716 2°40.273 252.2 1.9 256.3 12.5
2002-02-13 12:38:58 51°9.71 2°40.221 254 2 260 12.5
2002-02-13 12:39:58 51°9.703 2°40.171 250.7 1.9 254.8 12.5
2002-02-13 12:40:57 51°9.694 2°40.123 252 1.9 253.2 12.6
2002-02-13 12:41:58 51°9.688 2°40.072 255.5 1.9 260.3 12.7
2002-02-13 12:42:58 51°9.683 2°40.021 259.3 2 264.2 12.7
2002-02-13 12:43:58 51°9.674 2°39.973 246 1.9 246.2 12.8
2002-02-13 12:44:58 51°9.659 2°39.928 245.8 1.9 240.5 12.7
2002-02-13 12:45:58 51°9.645 2°39.883 250.2 1.9 246.5 12.7
2002-02-13 12:46:58 51°9.636 2°39.837 255.2 1.8 253 12.8
2002-02-13 12:47:57 51°9.632 2°39.789 261 1.8 264.4 12.8
2002-02-13 12:48:58 51°9.633 2°39.737 269.7 2 279.7 12.9
2002-02-13 12:49:58 51°9.647 2°39.688 285.3 2 306.6 13
2002-02-13 12:50:58 51°9.67 2°39.662 299 1.6 337.2 13.2
2002-02-13 12:51:58 51°9.696 2°39.658 321.8 1.7 7.4 13.3
2002-02-13 12:52:57 51°9.727 2°39.677 351 2.2 27.2 13.4
2002-02-13 12:53:57 51°9.757 2°39.711 1.8 2.1 39.8 13.5
2002-02-13 12:54:58 51°9.781 2°39.745 353.2 1.8 43.2 13.6
2002-02-13 12:55:58 51°9.801 2°39.776 339.2 1.5 45.4 13.7
2002-02-13 12:56:57 51°9.817 2°39.802 328.5 1.3 47.8 13.7
2002-02-13 12:57:58 51°9.831 2°39.829 326 1.3 49.8 13.8
2002-02-13 12:58:58 51°9.88 2°39.846 9.2 6.6 12.2 13.8
2002-02-13 12:59:57 51°9.973 2°40.044 70.5 11.6 65 14
2002-02-13 13:00:58 51°10.079 2°40.379 68.3 14.7 62.9 13.9
2002-02-13 13:01:58 51°10.19 2°40.731 69.3 15 63 14.1
2002-02-13 13:02:57 51°10.3 2°41.077 69 14.9 62.4 14.2
2002-02-13 13:03:57 51°10.411 2°41.43 69 14.9 62.2 14.4
2002-02-13 13:04:58 51°10.526 2°41.788 69.7 14.9 62.4 14.6
2002-02-13 13:05:58 51°10.638 2°42.138 69.5 14.8 61.9 14.8
2002-02-13 13:06:57 51°10.75 2°42.482 69.8 15 62.5 15
2002-02-13 13:07:58 51°10.865 2°42.84 69.2 15 62.1 15
2002-02-13 13:08:57 51°10.977 2°43.186 69 14.9 62.9 15.4
2002-02-13 13:09:58 51°11.096 2°43.539 69.5 14.9 63 15.5
2002-02-13 13:10:57 51°11.206 2°43.888 72.3 14.9 65.4 15.6
2002-02-13 13:11:58 51°11.308 2°44.257 73.5 15 66.5 15.8
2002-02-13 13:12:57 51°11.409 2°44.613 72.3 15 65.2 15.8
2002-02-13 13:13:58 51°11.512 2°44.985 73.8 15 66.6 15.9
2002-02-13 13:14:58 51°11.61 2°45.35 74.3 15 66.7 15.9
2002-02-13 13:15:58 51°11.71 2°45.715 73 15 65.9 16
2002-02-13 13:16:57 51°11.808 2°46.074 74 15.1 66.2 16
2002-02-13 13:17:58 51°11.91 2°46.448 74.3 15.1 66.1 15.9
2002-02-13 13:18:57 51°12.008 2°46.81 74.5 15.2 66.7 15.9
2002-02-13 13:19:57 51°12.111 2°47.177 74.3 15.1 66 15.9
2002-02-13 13:20:58 51°12.216 2°47.546 72.2 15.1 64 15.7
2002-02-13 13:21:58 51°12.338 2°47.896 66.8 15.1 59.1 15.6
2002-02-13 13:22:57 51°12.459 2°48.238 67 15.2 60.5 15.4
2002-02-13 13:23:57 51°12.583 2°48.587 67.5 15.1 60.2 15.4
2002-02-13 13:24:57 51°12.705 2°48.939 68 15.2 61.1 15.1
2002-02-13 13:25:58 51°12.837 2°49.291 64.7 15.2 58.6 15
2002-02-13 13:26:58 51°12.967 2°49.636 66.2 15.2 59.5 14.9
2002-02-13 13:27:57 51°13.093 2°49.977 66.2 15.3 58.9 14.7
2002-02-13 13:28:57 51°13.227 2°50.319 62.2 15.2 55.9 14.5
2002-02-13 13:29:57 51°13.371 2°50.648 51.3 15 46.7 14.2
2002-02-13 13:30:57 51°13.525 2°50.929 67.8 11.3 59 13.5
2002-02-13 13:31:58 51°13.557 2°51.079 123 1.8 52.5 13.8
2002-02-13 13:32:59 51°13.58 2°51.105 142.3 2 71.4 13.7
2002-02-13 13:33:58 51°13.577 2°51.171 143 2.4 94.7 14
2002-02-13 13:34:58 51°13.574 2°51.232 140.8 2.4 95.6 14.2
2002-02-13 13:35:57 51°13.568 2°51.302 136.3 3 99.6 14.2
2002-02-13 13:36:58 51°13.553 2°51.389 142.7 3.7 111.3 14.3
2002-02-13 13:37:57 51°13.52 2°51.469 167.3 3.6 133.1 14.3
2002-02-13 13:38:58 51°13.474 2°51.513 192.7 3 160.2 14.1
2002-02-13 13:39:58 51°13.436 2°51.505 228.2 2.2 208 14
2002-02-13 13:40:57 51°13.407 2°51.481 225 1.6 203.5 14
2002-02-13 13:41:57 51°13.377 2°51.48 193.2 2.5 164.7 13.8
2002-02-13 13:42:58 51°13.345 2°51.491 214.7 1.6 178.2 13.7
2002-02-13 13:43:57 51°13.326 2°51.469 247.2 1.7 241.2 13.6
2002-02-13 13:44:58 51°13.325 2°51.412 266.2 2.2 275.8 13.8
2002-02-13 13:45:57 51°13.326 2°51.359 259.2 1.8 269.6 13.8
2002-02-13 13:46:58 51°13.322 2°51.315 255.5 1.6 263 13.9
2002-02-13 13:47:58 51°13.317 2°51.267 255.8 1.9 260.7 13.9
2002-02-13 13:48:58 51°13.312 2°51.213 253.8 2.1 257.5 14
2002-02-13 13:49:57 51°13.302 2°51.161 253.5 2.1 255.6 14.1
2002-02-13 13:50:58 51°13.299 2°51.103 255.7 2.1 263.9 14.2
2002-02-13 13:51:58 51°13.28 2°51.063 231 2 220.3 14.2
2002-02-13 13:52:58 51°13.257 2°51.02 243.3 2.1 237.8 14.2
2002-02-13 13:53:57 51°13.236 2°50.975 229.2 2.1 221.5 14.1
2002-02-13 13:54:57 51°13.204 2°50.947 223.5 2.2 209.7 14
2002-02-13 13:55:58 51°13.176 2°50.909 233.2 2.2 224.5 14
2002-02-13 13:56:58 51°13.149 2°50.868 232.3 2.3 223.1 14
2002-02-13 13:57:58 51°13.121 2°50.827 231.7 2.3 222.8 13.9
2002-02-13 13:58:58 51°13.093 2°50.786 231.8 2.3 223.4 13.8
2002-02-13 13:59:57 51°13.066 2°50.747 232.5 2.1 223.2 13.8
2002-02-13 14:00:58 51°13.041 2°50.708 235.3 2 226.8 13.8
2002-02-13 14:01:58 51°13.021 2°50.668 239 1.9 234.1 13.7
2002-02-13 14:02:58 51°13.001 2°50.628 233.7 1.9 226.1 13.7
2002-02-13 14:03:58 51°12.975 2°50.598 219 1.9 205.9 13.6
2002-02-13 14:04:58 51°12.942 2°50.583 213.7 2 194.4 13.5
2002-02-13 14:05:58 51°12.911 2°50.565 222.8 1.7 206.1 13.4
2002-02-13 14:06:58 51°12.893 2°50.546 234.2 1.1 221.6 13.3
2002-02-13 14:07:58 51°12.883 2°50.526 243.8 0.9 236.3 13.3
2002-02-13 14:08:58 51°12.878 2°50.505 252.3 0.8 256.4 13.4
2002-02-13 14:09:58 51°12.876 2°50.481 260.8 1 268.2 13.4
2002-02-13 14:10:58 51°12.877 2°50.419 269.2 3.9 272.4 13.5
2002-02-13 14:11:58 51°12.885 2°50.324 278.3 3.1 285.4 13.7
2002-02-13 14:12:58 51°12.904 2°50.259 289.2 2.5 301.3 13.9
2002-02-13 14:13:59 51°12.928 2°50.219 302.2 1.8 326.2 14.2
2002-02-13 14:14:57 51°12.952 2°50.204 317.5 1.6 349 14.3
2002-02-13 14:15:57 51°12.978 2°50.204 330.7 1.5 8.9 14.4
2002-02-13 14:16:58 51°13.026 2°50.224 23.5 5.9 23.9 14.4
2002-02-13 14:17:58 51°13.169 2°50.436 40.7 14 39.6 14.4
2002-02-13 14:18:58 51°13.354 2°50.684 41.3 14.8 38.9 14.1
2002-02-13 14:19:58 51°13.521 2°50.95 34 12.3 35.2 13.4
2002-02-13 14:20:58 51°13.625 2°51.053 38.3 5.3 38.8 9.1
2002-02-13 14:21:57 51°13.669 2°51.207 108.2 8.2 94.9 11
2002-02-13 14:22:58 51°13.595 2°51.324 188 5.5 169.3 14
2002-02-13 14:23:58 51°13.538 2°51.25 252.8 4.9 250.6 14
2002-02-13 14:24:58 51°13.549 2°51.051 285.7 8.7 287.7 13.4
2002-02-13 14:25:58 51°13.583 2°50.94 269.7 2.4 286 9.7
2002-02-13 14:26:57 51°13.543 2°50.884 178.3 5.9 169.4 12.4
2002-02-13 14:27:58 51°13.511 2°51.016 90.8 5 82.8 13.9
2002-02-13 14:28:58 51°13.517 2°51.095 112.3 1.4 64.5 14
2002-02-13 14:29:58 51°13.527 2°51.117 130.7 1.1 57.3 14
2002-02-13 14:30:58 51°13.534 2°51.142 141.2 1.1 67.8 13.9
2002-02-13 14:31:58 51°13.54 2°51.168 147.2 1.1 73.9 14
2002-02-13 14:32:58 51°13.544 2°51.196 148.2 1.1 77.2 14
2002-02-13 14:33:58 51°13.546 2°51.225 145.2 1.2 78.8 14
2002-02-13 14:34:58 51°13.55 2°51.256 140.3 1.2 80.9 13.9
2002-02-13 14:35:58 51°13.554 2°51.287 135 1.2 79.8 14
2002-02-13 14:36:58 51°13.557 2°51.319 129.8 1.4 84.5 14
2002-02-13 14:37:58 51°13.592 2°51.489 68 11.7 63.9 13.9
2002-02-13 14:38:58 51°13.698 2°51.816 74.5 14.4 68.6 13.7
2002-02-13 14:39:58 51°13.789 2°52.177 74.5 14.7 69.4 13.5
2002-02-13 14:40:58 51°13.877 2°52.539 72.8 14.6 67.8 13.3
2002-02-13 14:41:58 51°13.959 2°52.903 78.3 14.5 72.3 12.9
2002-02-13 14:42:58 51°14.039 2°53.265 76.7 14.5 70.5 12.4
2002-02-13 14:43:57 51°14.113 2°53.622 78.8 14.4 72.5 11.9
2002-02-13 14:44:58 51°14.184 2°53.988 77.7 14.2 72.8 11.6
2002-02-13 14:45:58 51°14.255 2°54.348 77.7 14.2 72.5 11.5
2002-02-13 14:46:58 51°14.321 2°54.709 80.8 14.2 75.4 11.2
2002-02-13 14:47:58 51°14.348 2°55.03 102.8 10.8 96 12.5
2002-02-13 14:48:58 51°14.273 2°55.234 136 8.2 132.3 13.3
2002-02-13 14:50:02 51°14.178 2°55.368 152.2 6.4 147.6 -999
2002-02-13 14:51:03 51°14.09 2°55.434 158.7 5.3 155.6 -999
2002-02-13 14:52:03 51°14.014 2°55.49 158.3 4.9 154.5 -999
2002-02-13 14:53:03 51°13.94 2°55.546 158.7 4.9 154.7 -999
2002-02-13 14:54:03 51°13.86 2°55.606 158.3 5.8 154.5 -999
2002-02-13 14:55:03 51°13.786 2°55.668 149.8 4.1 147.2 -999
2002-02-13 14:56:03 51°13.744 2°55.727 136 3 133.6 -999
2002-02-13 14:57:03 51°13.718 2°55.782 124.2 2.5 120.6 -999
2002-02-13 14:58:03 51°13.701 2°55.843 115 2.6 109.2 -999
2002-02-13 14:59:03 51°13.689 2°55.901 121.3 1.4 116.8 -999
2002-02-13 15:00:03 51°13.688 2°55.904 130.8 0.1 85.2 -999
2002-02-13 15:01:03 51°13.688 2°55.905 131.2   4.4 -999